CCS5 weather

Havelock Airport
Havelock, New Brunswick, Canada

Public forecast

Using degrees Celsius for public forecast. Weather courtesy of forecast.io.

Closest aviation weather report (METAR) to Havelock Airport

Closest report is Greater Moncton International Airport, 27.0 nm (50.1 km) ENE. Retrieved 2019/10/19 05:00 UTC (37 minutes ago):

CYQM 190500Z 24010KT 15SM OVC039 07/05 A2959 RMK SC8 SLP023

Closest aviation forecast (TAF) to Havelock Airport

Closest forecast is Greater Moncton International Airport, 27.0 nm (50.1 km) ENE. Retrieved 2019-10-19 00:42 UTC (5 hours ago):

TAF CYQM 182339Z 1900/1924 26010KT P6SM SCT015 BKN030 TEMPO 1900/1914 BKN015 OVC030 FM191400 28012G22KT P6SM BKN030 BECMG 1922/1924 28010KT RMK NXT FCST BY 190600Z